Time;durP1;ratioP1;P1;durP2;ratioP2;P2;SDS_P1;SDS_P2;PMS_P1;PMS_P2;Temp;Humidity;BMP_temperature;BMP_pressure;BME280_temperature;BME280_humidity;BME280_pressure;Samples;Min_cycle;Max_cycle;Signal;HPM_P1;HPM_P2
2022/11/28 00:02:15;;;;;;;0.00;0.00;;;;;;;;;;5002034;28;20595;-74
2022/11/28 00:04:42;;;;;;;0.00;0.00;;;;;;;;;;5021881;28;20029;-74
2022/11/28 00:07:10;;;;;;;0.00;0.00;;;;;;;;;;5004606;28;20048;-74
2022/11/28 00:09:36;;;;;;;0.00;0.00;;;;;;;;;;5027580;28;20030;-74
2022/11/28 00:12:03;;;;;;;0.00;0.00;;;;;;;;;;5022221;28;20531;-74
2022/11/28 00:14:29;;;;;;;0.00;0.00;;;;;;;;;;4996207;28;20025;-73
2022/11/28 00:16:55;;;;;;;0.00;0.00;;;;;;;;;;5013541;28;20029;-74
2022/11/28 00:19:22;;;;;;;0.00;0.00;;;;;;;;;;5002112;28;20480;-75
2022/11/28 00:21:48;;;;;;;0.00;0.00;;;;;;;;;;5034517;28;20025;-74
2022/11/28 00:24:14;;;;;;;0.00;0.00;;;;;;;;;;5023980;28;20034;-74
2022/11/28 00:26:41;;;;;;;0.00;0.00;;;;;;;;;;4995600;28;20029;-75
2022/11/28 00:29:08;;;;;;;0.00;0.00;;;;;;;;;;5013133;28;20026;-74
2022/11/28 00:31:41;;;;;;;0.00;0.00;;;;;;;;;;5021580;28;20044;-74
2022/11/28 00:34:08;;;;;;;0.00;0.00;;;;;;;;;;5006522;28;20373;-74
2022/11/28 00:36:35;;;;;;;0.00;0.00;;;;;;;;;;5005314;28;20036;-74
2022/11/28 00:39:01;;;;;;;0.00;0.00;;;;;;;;;;4999518;28;20163;-74
2022/11/28 00:41:29;;;;;;;0.00;0.00;;;;;;;;;;5013367;28;20026;-73
2022/11/28 00:43:57;;;;;;;0.00;0.00;;;;;;;;;;4999729;28;20231;-74
2022/11/28 00:46:24;;;;;;;0.00;0.00;;;;;;;;;;5018823;28;20065;-74
2022/11/28 00:48:50;;;;;;;0.00;0.00;;;;;;;;;;5020818;28;20102;-74
2022/11/28 00:51:18;;;;;;;0.00;0.00;;;;;;;;;;5013952;28;20029;-74
2022/11/28 00:53:46;;;;;;;0.00;0.00;;;;;;;;;;5021620;28;20037;-75
2022/11/28 00:56:14;;;;;;;0.00;0.00;;;;;;;;;;5024664;28;20030;-75
2022/11/28 00:58:40;;;;;;;0.00;0.00;;;;;;;;;;5016266;28;20059;-73
2022/11/28 01:01:08;;;;;;;0.03;0.03;;;;;;;;;;5030337;28;20552;-74
2022/11/28 01:03:35;;;;;;;0.00;0.00;;;;;;;;;;4999622;28;20041;-74
2022/11/28 01:06:01;;;;;;;0.07;0.07;;;;;;;;;;5030880;28;20103;-74
2022/11/28 01:08:28;;;;;;;0.00;0.00;;;;;;;;;;5016125;28;20025;-75
2022/11/28 01:10:54;;;;;;;0.00;0.00;;;;;;;;;;5034199;28;20047;-74
2022/11/28 01:13:20;;;;;;;0.00;0.00;;;;;;;;;;5013582;28;20030;-74
2022/11/28 01:15:47;;;;;;;0.00;0.00;;;;;;;;;;5006762;28;20112;-74
2022/11/28 01:18:13;;;;;;;0.00;0.00;;;;;;;;;;5005063;28;20485;-74
2022/11/28 01:20:39;;;;;;;0.00;0.00;;;;;;;;;;5002688;28;20030;-74
2022/11/28 01:23:05;;;;;;;0.00;0.00;;;;;;;;;;5006983;28;20144;-74
2022/11/28 01:25:32;;;;;;;0.00;0.00;;;;;;;;;;5005367;28;20084;-74
2022/11/28 01:27:58;;;;;;;0.00;0.00;;;;;;;;;;5007127;28;20498;-74
2022/11/28 01:30:25;;;;;;;0.03;0.03;;;;;;;;;;5004023;28;20113;-75
2022/11/28 01:32:51;;;;;;;0.00;0.00;;;;;;;;;;5031527;28;20052;-74
2022/11/28 01:35:17;;;;;;;0.10;0.10;;;;;;;;;;5005878;28;20026;-73
2022/11/28 01:37:44;;;;;;;0.00;0.00;;;;;;;;;;5024961;28;20034;-74
2022/11/28 01:40:11;;;;;;;0.00;0.00;;;;;;;;;;5001755;28;20030;-75
2022/11/28 01:42:37;;;;;;;0.00;0.00;;;;;;;;;;4998521;28;20044;-75
2022/11/28 01:45:06;;;;;;;0.00;0.00;;;;;;;;;;5031718;28;20040;-75
2022/11/28 01:47:33;;;;;;;0.00;0.00;;;;;;;;;;5034625;28;20112;-75
2022/11/28 01:50:00;;;;;;;0.00;0.00;;;;;;;;;;4998812;28;20084;-75
2022/11/28 01:52:27;;;;;;;0.00;0.00;;;;;;;;;;5016252;28;20040;-75
2022/11/28 01:54:54;;;;;;;0.00;0.00;;;;;;;;;;4999980;28;20419;-75
2022/11/28 01:57:23;;;;;;;0.10;0.10;;;;;;;;;;5000045;28;20061;-76
2022/11/28 01:59:55;;;;;;;0.00;0.00;;;;;;;;;;5018018;28;20053;-75
2022/11/28 02:02:39;;;;;;;0.00;0.00;;;;;;;;;;5002610;28;20490;-75
2022/11/28 02:05:05;;;;;;;0.00;0.00;;;;;;;;;;5020121;28;20444;-73
2022/11/28 02:07:33;;;;;;;0.00;0.00;;;;;;;;;;5010334;28;20029;-74
2022/11/28 02:10:00;;;;;;;0.00;0.00;;;;;;;;;;5028931;28;20018;-74
2022/11/28 02:12:35;;;;;;;0.00;0.00;;;;;;;;;;5003646;28;20044;-74
2022/11/28 02:15:05;;;;;;;0.00;0.00;;;;;;;;;;4997352;28;20042;-75
2022/11/28 02:17:34;;;;;;;0.00;0.00;;;;;;;;;;5013797;28;20033;-75
2022/11/28 02:20:16;;;;;;;0.00;0.00;;;;;;;;;;5017141;28;20452;-75
2022/11/28 02:23:00;;;;;;;0.00;0.00;;;;;;;;;;5024329;28;20049;-76
2022/11/28 02:25:46;;;;;;;0.00;0.00;;;;;;;;;;5024983;28;20072;-75
2022/11/28 02:28:31;;;;;;;0.00;0.00;;;;;;;;;;5013741;28;20395;-75
2022/11/28 02:30:58;;;;;;;0.00;0.00;;;;;;;;;;5007153;28;20073;-76
2022/11/28 02:33:31;;;;;;;0.00;0.00;;;;;;;;;;5025547;28;20037;-75
2022/11/28 02:36:18;;;;;;;0.00;0.00;;;;;;;;;;5006914;28;20120;-75
2022/11/28 02:38:53;;;;;;;0.10;0.10;;;;;;;;;;5002102;28;20511;-76
2022/11/28 02:41:22;;;;;;;0.10;0.10;;;;;;;;;;5006961;28;20034;-78
2022/11/28 02:43:55;;;;;;;0.03;0.03;;;;;;;;;;5007922;28;20038;-75
2022/11/28 02:46:31;;;;;;;0.00;0.00;;;;;;;;;;5004839;28;20099;-76
2022/11/28 02:49:05;;;;;;;0.00;0.00;;;;;;;;;;5023987;28;20041;-75
2022/11/28 02:51:43;;;;;;;0.00;0.00;;;;;;;;;;5027904;28;20022;-75
2022/11/28 02:54:11;;;;;;;0.10;0.10;;;;;;;;;;5015526;28;20117;-76
2022/11/28 02:56:37;;;;;;;0.00;0.00;;;;;;;;;;5003320;28;20468;-74
2022/11/28 02:59:04;;;;;;;0.00;0.00;;;;;;;;;;5021061;28;20083;-75
2022/11/28 03:01:33;;;;;;;0.00;0.00;;;;;;;;;;4996011;28;20046;-72
2022/11/28 03:04:05;;;;;;;0.00;0.00;;;;;;;;;;5000785;28;20125;-73
2022/11/28 03:06:31;;;;;;;0.00;0.00;;;;;;;;;;4997582;28;20435;-73
2022/11/28 03:09:21;;;;;;;0.00;0.00;;;;;;;;;;4998131;28;20416;-73
2022/11/28 03:11:53;;;;;;;0.00;0.00;;;;;;;;;;4993362;28;20043;-72
2022/11/28 03:14:38;;;;;;;0.00;0.00;;;;;;;;;;5001919;28;20042;-73
2022/11/28 03:17:10;;;;;;;0.00;0.00;;;;;;;;;;4996497;28;20037;-75
2022/11/28 03:19:39;;;;;;;0.00;0.00;;;;;;;;;;4998912;28;20026;-76
2022/11/28 03:22:21;;;;;;;0.00;0.00;;;;;;;;;;4996107;28;20088;-74
2022/11/28 03:24:54;;;;;;;0.00;0.00;;;;;;;;;;4998037;28;20156;-75
2022/11/28 03:27:25;;;;;;;0.00;0.00;;;;;;;;;;5003746;28;20156;-76
2022/11/28 03:30:01;;;;;;;0.00;0.00;;;;;;;;;;4995981;28;20431;-75
2022/11/28 03:32:30;;;;;;;0.00;0.00;;;;;;;;;;4997671;28;20189;-74
2022/11/28 03:35:03;;;;;;;0.00;0.00;;;;;;;;;;5000022;28;20041;-75
2022/11/28 03:37:31;;;;;;;0.00;0.00;;;;;;;;;;4999585;28;20030;-75
2022/11/28 03:40:03;;;;;;;0.00;0.00;;;;;;;;;;5000608;28;20607;-76
2022/11/28 03:42:31;;;;;;;0.00;0.00;;;;;;;;;;5003051;28;20068;-77
2022/11/28 03:44:57;;;;;;;0.00;0.00;;;;;;;;;;5002772;28;20026;-77
2022/11/28 03:47:28;;;;;;;0.00;0.00;;;;;;;;;;4996148;28;20029;-76
2022/11/28 03:49:56;;;;;;;0.00;0.00;;;;;;;;;;4999647;28;20029;-75
2022/11/28 03:52:32;;;;;;;0.00;0.00;;;;;;;;;;4999629;28;20034;-76
2022/11/28 03:55:00;;;;;;;0.00;0.00;;;;;;;;;;4995838;28;20424;-76
2022/11/28 03:57:34;;;;;;;0.00;0.00;;;;;;;;;;5005067;28;20029;-74
2022/11/28 04:00:03;;;;;;;0.00;0.00;;;;;;;;;;5000838;28;20423;-74
2022/11/28 04:02:48;;;;;;;0.00;0.00;;;;;;;;;;4997550;28;20041;-73
2022/11/28 04:05:36;;;;;;;0.00;0.00;;;;;;;;;;4997203;28;20111;-75
2022/11/28 04:08:14;;;;;;;0.00;0.00;;;;;;;;;;5006242;28;20036;-73
2022/11/28 04:10:40;;;;;;;0.00;0.00;;;;;;;;;;4996828;28;20024;-74
2022/11/28 04:13:09;;;;;;;0.00;0.00;;;;;;;;;;4997059;28;20034;-75
2022/11/28 04:15:48;;;;;;;0.00;0.00;;;;;;;;;;4999946;28;20541;-76
2022/11/28 04:18:27;;;;;;;0.00;0.00;;;;;;;;;;4999878;28;20030;-76
2022/11/28 04:21:12;;;;;;;0.00;0.00;;;;;;;;;;4995208;28;20106;-75
2022/11/28 04:23:44;;;;;;;0.00;0.00;;;;;;;;;;4994971;28;20042;-74
2022/11/28 04:26:13;;;;;;;0.00;0.00;;;;;;;;;;4999949;28;20061;-76
2022/11/28 04:28:41;;;;;;;0.00;0.00;;;;;;;;;;4997328;28;20030;-75
2022/11/28 04:31:07;;;;;;;0.00;0.00;;;;;;;;;;5002587;28;20022;-76
2022/11/28 04:33:37;;;;;;;0.00;0.00;;;;;;;;;;4998999;28;20228;-74
2022/11/28 04:36:05;;;;;;;0.00;0.00;;;;;;;;;;5006244;28;20106;-74
2022/11/28 04:38:32;;;;;;;0.00;0.00;;;;;;;;;;4999380;28;20053;-75
2022/11/28 04:41:06;;;;;;;0.00;0.00;;;;;;;;;;4998621;28;20070;-74
2022/11/28 04:43:35;;;;;;;0.00;0.00;;;;;;;;;;5001015;28;20085;-75
2022/11/28 04:46:07;;;;;;;0.00;0.00;;;;;;;;;;4997181;28;20029;-77
2022/11/28 04:48:33;;;;;;;0.00;0.00;;;;;;;;;;5010104;28;20029;-78
2022/11/28 04:51:06;;;;;;;0.00;0.00;;;;;;;;;;5013317;28;20030;-77
2022/11/28 04:53:39;;;;;;;0.00;0.00;;;;;;;;;;5005080;28;20026;-78
2022/11/28 04:56:13;;;;;;;0.00;0.00;;;;;;;;;;4999570;28;20030;-76
2022/11/28 04:58:44;;;;;;;0.00;0.00;;;;;;;;;;5001658;28;20037;-75
2022/11/28 05:01:14;;;;;;;0.00;0.00;;;;;;;;;;5013673;28;20056;-80
2022/11/28 05:03:40;;;;;;;0.00;0.00;;;;;;;;;;5001938;28;20041;-81
2022/11/28 05:06:08;;;;;;;0.00;0.00;;;;;;;;;;5001223;28;20038;-81
2022/11/28 05:08:34;;;;;;;0.00;0.00;;;;;;;;;;5006300;28;20033;-81
2022/11/28 05:11:00;;;;;;;0.00;0.00;;;;;;;;;;5008524;28;20120;-81
2022/11/28 05:13:27;;;;;;;0.00;0.00;;;;;;;;;;5022490;28;20029;-80
2022/11/28 05:15:53;;;;;;;0.00;0.00;;;;;;;;;;5005627;28;20058;-80
2022/11/28 05:18:19;;;;;;;0.00;0.00;;;;;;;;;;5020277;28;20041;-83
2022/11/28 05:20:52;;;;;;;0.00;0.00;;;;;;;;;;5004896;28;20487;-81
2022/11/28 05:23:21;;;;;;;0.00;0.00;;;;;;;;;;5007334;28;20040;-82
2022/11/28 05:25:47;;;;;;;0.00;0.00;;;;;;;;;;5021831;28;20072;-78
2022/11/28 05:28:14;;;;;;;0.00;0.00;;;;;;;;;;5024088;28;20484;-81
2022/11/28 05:30:40;;;;;;;0.00;0.00;;;;;;;;;;4998318;28;20033;-81
2022/11/28 05:33:06;;;;;;;0.00;0.00;;;;;;;;;;5018677;28;21006;-81
2022/11/28 05:35:33;;;;;;;0.00;0.00;;;;;;;;;;5002105;28;20093;-82
2022/11/28 05:37:59;;;;;;;0.00;0.00;;;;;;;;;;5003791;28;20041;-80
2022/11/28 05:40:25;;;;;;;0.00;0.00;;;;;;;;;;5005265;28;20541;-83
2022/11/28 05:42:52;;;;;;;0.00;0.00;;;;;;;;;;5005874;28;20029;-81
2022/11/28 05:45:18;;;;;;;0.00;0.00;;;;;;;;;;5004894;28;20030;-81
2022/11/28 05:47:44;;;;;;;0.00;0.00;;;;;;;;;;5005009;28;20105;-80
2022/11/28 05:50:11;;;;;;;0.00;0.00;;;;;;;;;;5002273;28;20025;-78
2022/11/28 05:52:37;;;;;;;0.00;0.00;;;;;;;;;;5004002;28;20033;-80
2022/11/28 05:55:04;;;;;;;0.00;0.00;;;;;;;;;;5001182;28;20048;-80
2022/11/28 05:57:31;;;;;;;0.00;0.00;;;;;;;;;;5023200;28;20526;-83
2022/11/28 05:59:58;;;;;;;0.00;0.00;;;;;;;;;;5004866;28;20136;-84
2022/11/28 06:02:24;;;;;;;0.00;0.00;;;;;;;;;;5002668;28;20037;-85
2022/11/28 06:04:51;;;;;;;0.00;0.00;;;;;;;;;;5009639;28;20032;-86
2022/11/28 06:07:18;;;;;;;0.00;0.00;;;;;;;;;;5010986;28;20029;-86
2022/11/28 06:09:45;;;;;;;0.00;0.00;;;;;;;;;;5011804;28;20025;-83
2022/11/28 06:12:11;;;;;;;0.00;0.00;;;;;;;;;;5023138;28;20034;-86
2022/11/28 06:14:37;;;;;;;0.00;0.00;;;;;;;;;;5006240;28;20120;-84
2022/11/28 06:17:04;;;;;;;0.00;0.00;;;;;;;;;;5025366;28;20079;-84
2022/11/28 06:19:30;;;;;;;0.00;0.00;;;;;;;;;;5016058;28;20099;-85
2022/11/28 06:21:57;;;;;;;0.00;0.00;;;;;;;;;;5019825;28;20037;-81
2022/11/28 06:24:23;;;;;;;0.00;0.00;;;;;;;;;;5017781;28;20045;-87
2022/11/28 06:26:49;;;;;;;0.00;0.00;;;;;;;;;;5010791;28;20055;-85
2022/11/28 06:29:16;;;;;;;0.00;0.00;;;;;;;;;;5016969;28;20026;-84
2022/11/28 06:31:47;;;;;;;0.00;0.00;;;;;;;;;;5013618;28;20029;-85
2022/11/28 06:34:14;;;;;;;0.00;0.00;;;;;;;;;;5030713;28;20108;-86
2022/11/28 06:36:40;;;;;;;0.00;0.00;;;;;;;;;;5011945;28;20053;-86
2022/11/28 06:39:07;;;;;;;0.00;0.00;;;;;;;;;;5026470;28;20511;-84
2022/11/28 06:41:33;;;;;;;0.00;0.00;;;;;;;;;;5022678;28;20141;-85
2022/11/28 06:43:59;;;;;;;0.00;0.00;;;;;;;;;;5019011;28;20038;-84
2022/11/28 06:46:26;;;;;;;0.00;0.00;;;;;;;;;;5049219;28;20021;-84
2022/11/28 06:48:52;;;;;;;0.00;0.00;;;;;;;;;;5019802;28;20025;-84
2022/11/28 06:51:19;;;;;;;0.00;0.00;;;;;;;;;;5009882;28;20026;-82
2022/11/28 06:53:45;;;;;;;0.00;0.00;;;;;;;;;;5005873;28;20424;-84
2022/11/28 06:56:13;;;;;;;0.00;0.00;;;;;;;;;;5023010;28;20094;-85
2022/11/28 06:58:40;;;;;;;0.00;0.00;;;;;;;;;;5000807;28;20055;-83
2022/11/28 07:01:11;;;;;;;0.00;0.00;;;;;;;;;;5019975;28;20042;-83
2022/11/28 07:03:38;;;;;;;0.00;0.00;;;;;;;;;;5006692;28;20757;-82
2022/11/28 07:06:04;;;;;;;0.00;0.00;;;;;;;;;;5001723;28;20032;-84
2022/11/28 07:08:31;;;;;;;0.00;0.00;;;;;;;;;;5007465;28;20030;-82
2022/11/28 07:10:58;;;;;;;0.00;0.00;;;;;;;;;;5024617;28;20052;-83
2022/11/28 07:13:25;;;;;;;0.00;0.00;;;;;;;;;;5020748;28;20029;-83
2022/11/28 07:15:51;;;;;;;0.00;0.00;;;;;;;;;;5006206;28;20040;-83
2022/11/28 07:18:18;;;;;;;0.00;0.00;;;;;;;;;;5013966;28;20022;-82
2022/11/28 07:20:47;;;;;;;0.00;0.00;;;;;;;;;;5025227;28;20025;-81
2022/11/28 07:23:33;;;;;;;0.00;0.00;;;;;;;;;;5027923;28;20088;-87
2022/11/28 07:26:04;;;;;;;0.00;0.00;;;;;;;;;;5004123;28;20026;-82
2022/11/28 07:28:37;;;;;;;0.00;0.00;;;;;;;;;;5014044;28;20684;-90
2022/11/28 07:31:07;;;;;;;0.00;0.00;;;;;;;;;;5015300;28;20025;-83
2022/11/28 07:33:37;;;;;;;0.00;0.00;;;;;;;;;;5007086;28;20449;-85
2022/11/28 07:36:04;;;;;;;0.00;0.00;;;;;;;;;;5008954;28;20684;-85
2022/11/28 07:38:33;;;;;;;0.00;0.00;;;;;;;;;;5022550;28;20151;-83
2022/11/28 07:41:11;;;;;;;0.00;0.00;;;;;;;;;;5000233;28;20041;-86
2022/11/28 07:43:37;;;;;;;0.00;0.00;;;;;;;;;;5003902;28;20088;-88
2022/11/28 07:46:23;;;;;;;0.00;0.00;;;;;;;;;;5004517;28;20041;-87
2022/11/28 07:48:49;;;;;;;0.00;0.00;;;;;;;;;;5002536;28;20128;-87
2022/11/28 07:51:18;;;;;;;0.00;0.00;;;;;;;;;;5008529;28;20492;-87
2022/11/28 07:53:47;;;;;;;0.00;0.00;;;;;;;;;;5004482;28;20057;-86
2022/11/28 07:56:17;;;;;;;0.00;0.00;;;;;;;;;;5006691;28;20092;-87
2022/11/28 07:58:44;;;;;;;0.00;0.00;;;;;;;;;;5008577;28;20491;-88
2022/11/28 08:01:12;;;;;;;0.00;0.00;;;;;;;;;;5000150;28;20471;-86
2022/11/28 08:03:39;;;;;;;0.00;0.00;;;;;;;;;;5007484;28;20405;-88
2022/11/28 08:06:15;;;;;;;0.00;0.00;;;;;;;;;;4998898;28;20034;-81
2022/11/28 08:08:45;;;;;;;0.00;0.00;;;;;;;;;;5002590;28;20030;-83
2022/11/28 08:11:16;;;;;;;0.00;0.00;;;;;;;;;;5003126;28;20080;-81
2022/11/28 08:13:46;;;;;;;0.00;0.00;;;;;;;;;;5003916;28;20034;-82
2022/11/28 08:16:14;;;;;;;0.00;0.00;;;;;;;;;;5005289;28;20105;-81
2022/11/28 08:18:43;;;;;;;0.00;0.00;;;;;;;;;;5002944;28;20038;-81
2022/11/28 08:21:11;;;;;;;0.00;0.00;;;;;;;;;;5005286;28;20042;-81
2022/11/28 08:23:38;;;;;;;0.00;0.00;;;;;;;;;;5001948;28;20029;-81
2022/11/28 08:26:05;;;;;;;0.00;0.00;;;;;;;;;;4993427;28;20037;-80
2022/11/28 08:28:41;;;;;;;0.00;0.00;;;;;;;;;;4995928;28;20026;-82
2022/11/28 08:31:09;;;;;;;0.00;0.00;;;;;;;;;;4999550;28;20026;-84
2022/11/28 08:33:35;;;;;;;0.00;0.00;;;;;;;;;;5000390;28;20033;-82
2022/11/28 08:36:05;;;;;;;0.00;0.00;;;;;;;;;;5001595;28;20026;-79
2022/11/28 08:38:31;;;;;;;0.00;0.00;;;;;;;;;;4995581;28;20034;-81
2022/11/28 08:41:42;;;;;;;0.00;0.00;;;;;;;;;;4996527;28;20041;-85
2022/11/28 08:44:37;;;;;;;0.00;0.00;;;;;;;;;;5013269;28;20472;-88
2022/11/28 08:47:23;;;;;;;0.00;0.00;;;;;;;;;;4984055;28;20030;-86
2022/11/28 08:49:49;;;;;;;0.00;0.00;;;;;;;;;;5023272;28;20050;-81
2022/11/28 08:52:22;;;;;;;0.00;0.00;;;;;;;;;;5009639;28;20601;-87
2022/11/28 08:54:48;;;;;;;0.00;0.00;;;;;;;;;;5002858;28;20101;-80
2022/11/28 08:57:15;;;;;;;0.00;0.00;;;;;;;;;;5000723;28;20076;-83
2022/11/28 08:59:41;;;;;;;0.00;0.00;;;;;;;;;;4999109;28;20030;-86
2022/11/28 09:02:11;;;;;;;0.00;0.00;;;;;;;;;;5006655;28;20045;-88
2022/11/28 09:04:37;;;;;;;0.00;0.00;;;;;;;;;;5028803;28;20056;-85
2022/11/28 09:07:03;;;;;;;0.00;0.00;;;;;;;;;;5029640;28;20025;-87
2022/11/28 09:09:30;;;;;;;0.00;0.00;;;;;;;;;;5012381;28;20034;-87
2022/11/28 09:11:56;;;;;;;0.00;0.00;;;;;;;;;;5007660;28;20048;-88
2022/11/28 09:14:25;;;;;;;0.00;0.00;;;;;;;;;;5014497;28;20052;-87
2022/11/28 09:17:10;;;;;;;0.00;0.00;;;;;;;;;;5008459;28;20099;-87
2022/11/28 09:19:36;;;;;;;0.00;0.00;;;;;;;;;;5000981;28;20029;-86
2022/11/28 09:22:03;;;;;;;0.00;0.00;;;;;;;;;;5012679;28;20113;-84
2022/11/28 09:24:57;;;;;;;0.00;0.00;;;;;;;;;;5009384;28;20037;-86
2022/11/28 09:27:23;;;;;;;0.00;0.00;;;;;;;;;;5011405;28;20022;-85
2022/11/28 09:29:58;;;;;;;0.00;0.00;;;;;;;;;;5009390;28;20445;-85
2022/11/28 09:32:24;;;;;;;0.00;0.00;;;;;;;;;;5018218;28;20029;-86
2022/11/28 09:34:51;;;;;;;0.00;0.00;;;;;;;;;;5001125;28;20030;-86
2022/11/28 09:37:23;;;;;;;0.00;0.00;;;;;;;;;;5000799;28;20045;-85
2022/11/28 09:39:50;;;;;;;0.00;0.00;;;;;;;;;;5006841;28;20163;-81
2022/11/28 09:45:22;;;;;;;0.00;0.00;;;;;;;;;;5028274;28;20060;-82
2022/11/28 09:47:50;;;;;;;0.00;0.00;;;;;;;;;;5005258;28;20030;-86
2022/11/28 09:50:25;;;;;;;0.00;0.00;;;;;;;;;;5016152;28;20109;-82
2022/11/28 09:52:58;;;;;;;0.00;0.00;;;;;;;;;;5015119;28;20048;-86
2022/11/28 09:55:28;;;;;;;0.00;0.00;;;;;;;;;;5029806;28;20112;-83
2022/11/28 09:57:55;;;;;;;0.00;0.00;;;;;;;;;;5035151;28;20025;-82
2022/11/28 10:00:21;;;;;;;0.00;0.00;;;;;;;;;;5019565;28;20049;-84
2022/11/28 10:02:54;;;;;;;0.00;0.00;;;;;;;;;;5002526;28;20064;-81
2022/11/28 10:05:24;;;;;;;0.00;0.00;;;;;;;;;;5006112;28;20033;-82
2022/11/28 10:08:00;;;;;;;0.00;0.00;;;;;;;;;;5020678;28;20032;-81
2022/11/28 10:10:29;;;;;;;0.00;0.00;;;;;;;;;;5002382;28;20659;-78
2022/11/28 10:13:02;;;;;;;0.00;0.00;;;;;;;;;;5021918;28;20047;-86
2022/11/28 10:15:32;;;;;;;0.00;0.00;;;;;;;;;;5004399;28;20113;-82
2022/11/28 10:18:09;;;;;;;0.00;0.00;;;;;;;;;;5002295;28;20029;-84
2022/11/28 10:20:41;;;;;;;0.00;0.00;;;;;;;;;;5010904;28;20472;-84
2022/11/28 10:23:41;;;;;;;0.00;0.00;;;;;;;;;;5003340;28;21816;-83
2022/11/28 10:26:08;;;;;;;0.00;0.00;;;;;;;;;;5018860;28;20108;-83
2022/11/28 10:28:37;;;;;;;0.00;0.00;;;;;;;;;;5005633;28;20047;-80
2022/11/28 10:31:09;;;;;;;0.00;0.00;;;;;;;;;;5002829;28;20037;-83
2022/11/28 10:33:52;;;;;;;0.00;0.00;;;;;;;;;;5004263;28;20061;-81
2022/11/28 10:36:26;;;;;;;0.00;0.00;;;;;;;;;;5023441;28;20029;-83
2022/11/28 10:38:52;;;;;;;0.00;0.00;;;;;;;;;;5039777;28;20013;-83
2022/11/28 10:41:25;;;;;;;0.00;0.00;;;;;;;;;;5024830;28;20037;-79
2022/11/28 10:43:54;;;;;;;0.00;0.00;;;;;;;;;;5004188;28;20056;-80
2022/11/28 10:46:23;;;;;;;0.00;0.00;;;;;;;;;;5010162;28;20044;-82
2022/11/28 10:49:05;;;;;;;0.00;0.00;;;;;;;;;;5007151;28;20076;-78
2022/11/28 10:51:49;;;;;;;0.00;0.00;;;;;;;;;;5027707;28;20396;-80
2022/11/28 10:54:43;;;;;;;0.00;0.00;;;;;;;;;;5011326;28;20122;-81
2022/11/28 10:57:22;;;;;;;0.00;0.00;;;;;;;;;;4991479;28;20066;-83
2022/11/28 10:59:52;;;;;;;0.00;0.00;;;;;;;;;;5007125;28;20466;-84
2022/11/28 11:02:20;;;;;;;0.00;0.00;;;;;;;;;;5010396;28;20065;-81
2022/11/28 11:04:46;;;;;;;0.00;0.00;;;;;;;;;;5004651;28;20040;-81
2022/11/28 11:07:28;;;;;;;0.00;0.00;;;;;;;;;;4999710;28;20057;-81
2022/11/28 11:10:00;;;;;;;0.00;0.00;;;;;;;;;;5000759;28;20026;-81
2022/11/28 11:12:31;;;;;;;0.00;0.00;;;;;;;;;;5005067;28;20049;-85
2022/11/28 11:14:57;;;;;;;0.00;0.00;;;;;;;;;;5004307;28;20061;-85
2022/11/28 11:17:36;;;;;;;0.00;0.00;;;;;;;;;;5004468;28;20052;-83
2022/11/28 11:20:18;;;;;;;0.00;0.00;;;;;;;;;;5024592;28;20099;-78
2022/11/28 11:22:53;;;;;;;0.00;0.00;;;;;;;;;;5001635;28;20033;-82
2022/11/28 11:25:19;;;;;;;0.00;0.00;;;;;;;;;;5023482;28;20364;-84
2022/11/28 11:31:09;;;;;;;0.00;0.00;;;;;;;;;;4997742;28;20026;-84
2022/11/28 11:33:47;;;;;;;0.00;0.00;;;;;;;;;;4998142;28;20122;-82
2022/11/28 11:36:30;;;;;;;0.00;0.00;;;;;;;;;;4997852;28;20038;-86
2022/11/28 11:39:20;;;;;;;0.00;0.00;;;;;;;;;;5022739;28;20491;-83
2022/11/28 11:42:01;;;;;;;0.00;0.00;;;;;;;;;;4963749;28;20030;-86
2022/11/28 11:44:29;;;;;;;0.00;0.00;;;;;;;;;;5018883;28;20033;-84
2022/11/28 11:47:06;;;;;;;0.00;0.00;;;;;;;;;;5008603;28;20684;-81
2022/11/28 11:49:41;;;;;;;0.00;0.00;;;;;;;;;;5011927;28;20029;-83
2022/11/28 11:52:38;;;;;;;0.00;0.00;;;;;;;;;;5002988;28;20018;-81
2022/11/28 11:55:32;;;;;;;0.00;0.00;;;;;;;;;;5007898;28;20037;-85
2022/11/28 11:57:59;;;;;;;0.00;0.00;;;;;;;;;;5022923;28;20104;-84
2022/11/28 12:00:40;;;;;;;0.00;0.00;;;;;;;;;;5011703;28;20042;-81
2022/11/28 12:03:25;;;;;;;0.00;0.00;;;;;;;;;;5010132;28;20033;-83
2022/11/28 12:06:25;;;;;;;0.00;0.00;;;;;;;;;;5006940;28;20041;-86
2022/11/28 12:08:52;;;;;;;0.00;0.00;;;;;;;;;;5012685;28;20073;-86
2022/11/28 12:11:27;;;;;;;0.00;0.00;;;;;;;;;;5012696;28;20136;-86
2022/11/28 12:14:04;;;;;;;0.00;0.00;;;;;;;;;;5009929;28;20037;-85
2022/11/28 12:16:57;;;;;;;0.00;0.00;;;;;;;;;;5019655;28;20030;-83
2022/11/28 12:19:28;;;;;;;0.00;0.00;;;;;;;;;;5024881;28;20029;-82
2022/11/28 12:22:15;;;;;;;0.00;0.00;;;;;;;;;;5005542;28;20029;-83
2022/11/28 12:24:41;;;;;;;0.00;0.00;;;;;;;;;;5004075;28;20038;-84
2022/11/28 12:27:26;;;;;;;0.00;0.00;;;;;;;;;;5010876;28;20029;-83
2022/11/28 12:30:21;;;;;;;0.00;0.00;;;;;;;;;;5005233;28;20162;-83
2022/11/28 12:33:06;;;;;;;0.00;0.00;;;;;;;;;;4977550;28;20042;-82
2022/11/28 12:35:32;;;;;;;0.00;0.00;;;;;;;;;;5009493;28;20029;-83
2022/11/28 12:38:08;;;;;;;0.00;0.00;;;;;;;;;;5032760;28;20029;-80
2022/11/28 12:40:50;;;;;;;0.00;0.00;;;;;;;;;;5001128;28;20396;-82
2022/11/28 12:43:34;;;;;;;0.00;0.00;;;;;;;;;;5022808;28;20037;-80
2022/11/28 12:46:12;;;;;;;0.00;0.00;;;;;;;;;;5026317;28;20041;-79
2022/11/28 12:48:54;;;;;;;0.00;0.00;;;;;;;;;;5021764;28;20407;-82
2022/11/28 12:51:20;;;;;;;0.00;0.00;;;;;;;;;;5012834;28;20503;-80
2022/11/28 12:54:07;;;;;;;0.00;0.00;;;;;;;;;;5008016;28;20030;-78
2022/11/28 12:56:33;;;;;;;0.10;0.10;;;;;;;;;;5009974;28;20026;-76
2022/11/28 12:58:59;;;;;;;0.00;0.00;;;;;;;;;;5006891;28;20042;-78
2022/11/28 13:01:44;;;;;;;0.00;0.00;;;;;;;;;;5025107;28;20152;-78
2022/11/28 13:04:30;;;;;;;0.00;0.00;;;;;;;;;;5000756;28;20433;-77
2022/11/28 13:07:11;;;;;;;0.00;0.00;;;;;;;;;;4995563;28;20168;-79
2022/11/28 13:09:42;;;;;;;0.00;0.00;;;;;;;;;;4996691;28;20049;-77
2022/11/28 13:12:17;;;;;;;0.00;0.00;;;;;;;;;;5032300;28;20029;-82
2022/11/28 13:14:43;;;;;;;0.00;0.00;;;;;;;;;;5033648;28;20030;-80
2022/11/28 13:17:19;;;;;;;0.00;0.00;;;;;;;;;;5014280;28;20052;-79
2022/11/28 13:19:54;;;;;;;0.00;0.00;;;;;;;;;;5011294;28;20112;-75
2022/11/28 13:22:24;;;;;;;0.00;0.00;;;;;;;;;;5028421;28;20575;-79
2022/11/28 13:25:02;;;;;;;0.00;0.00;;;;;;;;;;5013555;28;20400;-79
2022/11/28 13:27:48;;;;;;;0.00;0.00;;;;;;;;;;5012894;28;20025;-79
2022/11/28 13:30:23;;;;;;;0.00;0.00;;;;;;;;;;4998949;28;20479;-76
2022/11/28 13:32:54;;;;;;;0.00;0.00;;;;;;;;;;5012456;28;20733;-75
2022/11/28 13:35:21;;;;;;;0.00;0.00;;;;;;;;;;5032003;28;20055;-75
2022/11/28 13:38:07;;;;;;;0.00;0.00;;;;;;;;;;5014193;28;20025;-75
2022/11/28 13:40:40;;;;;;;0.00;0.00;;;;;;;;;;5008927;28;20022;-75
2022/11/28 13:43:16;;;;;;;0.00;0.00;;;;;;;;;;5011198;28;20082;-75
2022/11/28 13:45:46;;;;;;;0.00;0.00;;;;;;;;;;5014339;28;20021;-76
2022/11/28 13:48:31;;;;;;;0.00;0.00;;;;;;;;;;5006911;28;20030;-77
2022/11/28 13:51:00;;;;;;;0.00;0.00;;;;;;;;;;4999222;28;20178;-76
2022/11/28 13:53:27;;;;;;;0.00;0.00;;;;;;;;;;5035473;28;20503;-78
2022/11/28 13:56:05;;;;;;;0.00;0.00;;;;;;;;;;5035984;28;20029;-77
2022/11/28 13:58:33;;;;;;;0.00;0.00;;;;;;;;;;5006097;28;20070;-77
2022/11/28 14:01:03;;;;;;;0.00;0.00;;;;;;;;;;5005135;28;20050;-76
2022/11/28 14:03:30;;;;;;;0.00;0.00;;;;;;;;;;5003572;28;20100;-77
2022/11/28 14:05:58;;;;;;;0.00;0.00;;;;;;;;;;5000295;28;20026;-77
2022/11/28 14:08:34;;;;;;;0.00;0.00;;;;;;;;;;5002198;28;20082;-76
2022/11/28 14:11:11;;;;;;;0.00;0.00;;;;;;;;;;4998892;28;20041;-77
2022/11/28 14:13:55;;;;;;;0.00;0.00;;;;;;;;;;4995744;28;20030;-76
2022/11/28 14:16:25;;;;;;;0.00;0.00;;;;;;;;;;5001298;28;20072;-78
2022/11/28 14:19:09;;;;;;;0.00;0.00;;;;;;;;;;5000515;28;20473;-76
2022/11/28 14:21:42;;;;;;;0.00;0.00;;;;;;;;;;5006086;28;20088;-76
2022/11/28 14:24:27;;;;;;;0.00;0.00;;;;;;;;;;5008312;28;20033;-77
2022/11/28 14:26:59;;;;;;;0.00;0.00;;;;;;;;;;5013874;28;20053;-75
2022/11/28 14:29:33;;;;;;;0.00;0.00;;;;;;;;;;5014111;28;20128;-75
2022/11/28 14:31:59;;;;;;;0.00;0.00;;;;;;;;;;5007008;28;20041;-77
2022/11/28 14:34:40;;;;;;;0.00;0.00;;;;;;;;;;5014488;28;20456;-76
2022/11/28 14:37:20;;;;;;;0.00;0.00;;;;;;;;;;5006002;28;20049;-76
2022/11/28 14:39:47;;;;;;;0.00;0.00;;;;;;;;;;5009072;28;20551;-75
2022/11/28 14:42:13;;;;;;;0.00;0.00;;;;;;;;;;5004515;28;20498;-76
2022/11/28 14:44:54;;;;;;;0.00;0.00;;;;;;;;;;4994844;28;20118;-76
2022/11/28 14:47:21;;;;;;;0.00;0.00;;;;;;;;;;5004634;28;20015;-78
2022/11/28 14:49:48;;;;;;;0.00;0.00;;;;;;;;;;4999838;28;20021;-78
2022/11/28 14:52:21;;;;;;;0.00;0.00;;;;;;;;;;5005652;28;20018;-79
2022/11/28 14:54:48;;;;;;;0.00;0.00;;;;;;;;;;5004684;28;20472;-78
2022/11/28 14:57:19;;;;;;;0.00;0.00;;;;;;;;;;5004050;28;20022;-78
2022/11/28 14:59:47;;;;;;;0.00;0.00;;;;;;;;;;4994798;28;20551;-78
2022/11/28 15:02:13;;;;;;;0.00;0.00;;;;;;;;;;5008650;28;20047;-79
2022/11/28 15:04:58;;;;;;;0.00;0.00;;;;;;;;;;5006164;28;20031;-79
2022/11/28 15:07:36;;;;;;;0.00;0.00;;;;;;;;;;5007012;28;20041;-77
2022/11/28 15:10:08;;;;;;;0.00;0.00;;;;;;;;;;5027758;28;20490;-78
2022/11/28 15:12:37;;;;;;;0.00;0.00;;;;;;;;;;5024106;28;20034;-78
2022/11/28 15:15:06;;;;;;;0.00;0.00;;;;;;;;;;5030161;28;20032;-78
2022/11/28 15:17:33;;;;;;;0.00;0.00;;;;;;;;;;5013563;28;20446;-79